Time;durP1;ratioP1;P1;durP2;ratioP2;P2;SDS_P1;SDS_P2;PMS_P1;PMS_P2;Temp;Humidity;BMP_temperature;BMP_pressure;BME280_temperature;BME280_humidity;BME280_pressure;Samples;Min_cycle;Max_cycle;Signal;HPM_P1;HPM_P2
2023/11/03 00:02:59;;;;;;;2.40;0.60;;;;;8.20;97392.00;;;;10316968;28;20409;-73
2023/11/03 00:08:00;;;;;;;1.40;0.43;;;;;8.30;97402.00;;;;10321014;28;20235;-71
2023/11/03 00:13:02;;;;;;;1.90;0.47;;;;;8.20;97396.00;;;;10322375;28;20836;-71
2023/11/03 00:18:03;;;;;;;3.20;0.60;;;;;8.20;97400.00;;;;10316872;28;20326;-71
2023/11/03 00:23:05;;;;;;;1.87;0.57;;;;;8.10;97408.00;;;;10320384;28;20227;-73
2023/11/03 00:28:06;;;;;;;1.03;0.60;;;;;8.00;97405.00;;;;10334580;28;20342;-72
2023/11/03 00:33:08;;;;;;;3.30;0.60;;;;;8.00;97417.00;;;;10320219;28;20228;-72
2023/11/03 00:38:09;;;;;;;3.50;0.87;;;;;8.00;97420.00;;;;10327624;28;20232;-72
2023/11/03 00:43:11;;;;;;;2.70;0.67;;;;;8.00;97441.00;;;;10321480;28;20223;-72
2023/11/03 00:48:12;;;;;;;1.77;0.50;;;;;8.00;97439.00;;;;10314747;28;20236;-72
2023/11/03 00:53:13;;;;;;;2.60;0.83;;;;;8.00;97440.00;;;;10326161;28;20230;-72
2023/11/03 00:58:14;;;;;;;2.20;0.70;;;;;7.90;97451.00;;;;10298861;28;20224;-72
2023/11/03 01:03:16;;;;;;;1.80;0.70;;;;;7.90;97471.00;;;;10318017;28;20227;-73
2023/11/03 01:08:17;;;;;;;4.00;1.00;;;;;8.00;97476.00;;;;10317034;28;20223;-72
2023/11/03 01:13:21;;;;;;;4.93;0.90;;;;;8.10;97488.00;;;;10318147;28;20223;-72
2023/11/03 01:18:22;;;;;;;2.40;0.80;;;;;8.10;97494.00;;;;10322464;28;20334;-73
2023/11/03 01:23:23;;;;;;;2.63;0.60;;;;;8.00;97491.00;;;;10319106;28;20252;-72
2023/11/03 01:28:24;;;;;;;2.57;0.70;;;;;7.90;97497.00;;;;10318456;28;20302;-72
2023/11/03 01:33:25;;;;;;;5.87;1.10;;;;;7.90;97499.00;;;;10314181;28;20303;-74
2023/11/03 01:38:26;;;;;;;3.77;1.10;;;;;8.00;97515.00;;;;10320807;28;20219;-75
2023/11/03 01:43:31;;;;;;;6.00;1.40;;;;;8.00;97509.00;;;;10316085;28;20227;-75
2023/11/03 01:48:32;;;;;;;6.40;1.10;;;;;7.90;97515.00;;;;10319637;28;20266;-74
2023/11/03 01:53:34;;;;;;;4.90;1.37;;;;;7.90;97526.00;;;;10325804;28;20243;-75
2023/11/03 01:58:35;;;;;;;6.53;1.10;;;;;7.90;97528.00;;;;10328497;28;20220;-75
2023/11/03 02:03:38;;;;;;;3.63;0.90;;;;;7.90;97516.00;;;;10322242;28;20890;-74
2023/11/03 02:08:39;;;;;;;3.27;0.93;;;;;7.90;97524.00;;;;10326946;28;20298;-74
2023/11/03 02:13:41;;;;;;;7.30;1.00;;;;;7.90;97540.00;;;;10322054;28;20310;-75
2023/11/03 02:18:42;;;;;;;6.77;1.67;;;;;7.90;97542.00;;;;10325234;28;20220;-74
2023/11/03 02:23:43;;;;;;;5.77;1.10;;;;;8.00;97555.00;;;;10316490;28;20685;-74
2023/11/03 02:28:44;;;;;;;3.30;1.37;;;;;8.00;97552.00;;;;10312407;28;20745;-74
2023/11/03 02:33:46;;;;;;;5.87;1.50;;;;;8.20;97572.00;;;;10316478;28;20224;-76
2023/11/03 02:38:48;;;;;;;8.80;1.40;;;;;8.30;97567.00;;;;10321749;28;20231;-74
2023/11/03 02:43:49;;;;;;;6.70;1.30;;;;;8.40;97583.00;;;;10302917;28;20943;-69
2023/11/03 02:48:50;;;;;;;8.10;1.40;;;;;8.40;97589.00;;;;10308193;28;20634;-69
2023/11/03 02:53:52;;;;;;;7.27;1.63;;;;;8.50;97609.00;;;;10318382;28;20234;-71
2023/11/03 02:58:53;;;;;;;6.47;1.17;;;;;8.40;97620.00;;;;10313610;28;20219;-69
2023/11/03 03:03:54;;;;;;;5.33;1.10;;;;;8.20;97620.00;;;;10322533;28;20282;-70
2023/11/03 03:08:56;;;;;;;7.17;1.17;;;;;8.20;97627.00;;;;10284176;28;20228;-70
2023/11/03 03:13:57;;;;;;;3.80;1.20;;;;;8.10;97621.00;;;;10307154;28;20875;-68
2023/11/03 03:18:58;;;;;;;12.03;1.93;;;;;8.10;97629.00;;;;10305755;28;20857;-70
2023/11/03 03:23:59;;;;;;;3.87;1.30;;;;;8.10;97634.00;;;;10304037;28;20220;-70
2023/11/03 03:29:01;;;;;;;6.27;1.83;;;;;8.10;97637.00;;;;10309867;28;20237;-70
2023/11/03 03:34:03;;;;;;;7.10;1.90;;;;;8.10;97646.00;;;;10307742;28;20751;-69
2023/11/03 03:39:04;;;;;;;4.17;1.13;;;;;8.10;97649.00;;;;10308227;28;20223;-70
2023/11/03 03:44:06;;;;;;;6.03;1.80;;;;;8.10;97645.00;;;;10310553;28;20850;-69
2023/11/03 03:49:07;;;;;;;5.30;1.40;;;;;8.10;97653.00;;;;10319096;28;20259;-70
2023/11/03 03:54:08;;;;;;;6.57;1.53;;;;;8.00;97655.00;;;;10314058;28;20226;-71
2023/11/03 03:59:09;;;;;;;5.93;1.60;;;;;7.90;97629.00;;;;10305567;28;20298;-72
2023/11/03 04:04:10;;;;;;;7.40;2.00;;;;;7.70;97624.00;;;;10308555;28;20890;-71
2023/11/03 04:09:11;;;;;;;5.77;1.37;;;;;7.60;97646.00;;;;10304913;28;20273;-72
2023/11/03 04:14:12;;;;;;;6.53;1.53;;;;;7.60;97653.00;;;;10305032;28;20227;-72
2023/11/03 04:19:14;;;;;;;4.60;1.50;;;;;7.60;97652.00;;;;10302102;28;20890;-72
2023/11/03 04:24:15;;;;;;;7.97;1.40;;;;;7.60;97659.00;;;;10293550;28;20227;-72
2023/11/03 04:29:18;;;;;;;4.03;1.27;;;;;7.60;97665.00;;;;10309812;28;20232;-72
2023/11/03 04:34:19;;;;;;;5.10;1.27;;;;;7.70;97663.00;;;;10303464;28;20226;-72
2023/11/03 04:39:20;;;;;;;7.60;1.30;;;;;7.70;97667.00;;;;10323556;28;20228;-71
2023/11/03 04:44:21;;;;;;;12.13;1.63;;;;;7.70;97672.00;;;;10328097;28;20281;-71
2023/11/03 04:49:23;;;;;;;4.93;1.07;;;;;7.70;97677.00;;;;10316149;28;20223;-71
2023/11/03 04:54:24;;;;;;;6.27;1.50;;;;;7.70;97674.00;;;;10313772;28;20212;-72
2023/11/03 04:59:25;;;;;;;6.43;1.30;;;;;7.70;97680.00;;;;10320239;28;20225;-72
2023/11/03 05:04:26;;;;;;;8.27;1.33;;;;;7.80;97685.00;;;;10317109;28;20294;-71
2023/11/03 05:09:27;;;;;;;7.73;1.53;;;;;7.80;97680.00;;;;10317584;28;20228;-71
2023/11/03 05:14:28;;;;;;;8.93;1.23;;;;;7.80;97692.00;;;;10321453;28;20537;-71
2023/11/03 05:19:29;;;;;;;7.10;1.80;;;;;7.90;97678.00;;;;10313806;28;20785;-71
2023/11/03 05:24:30;;;;;;;9.53;2.23;;;;;7.90;97690.00;;;;10315972;28;20231;-71
2023/11/03 05:29:31;;;;;;;7.67;1.37;;;;;8.00;97688.00;;;;10297528;28;20621;-71
2023/11/03 05:34:34;;;;;;;9.87;1.73;;;;;8.00;97688.00;;;;10317105;28;20913;-72
2023/11/03 05:39:35;;;;;;;6.90;1.67;;;;;8.00;97693.00;;;;10329230;28;20720;-72
2023/11/03 05:44:36;;;;;;;4.70;1.60;;;;;8.00;97686.00;;;;10319382;28;20309;-71
2023/11/03 05:49:37;;;;;;;13.20;2.17;;;;;8.10;97700.00;;;;10326434;28;20680;-71
2023/11/03 05:54:39;;;;;;;4.07;1.30;;;;;8.10;97721.00;;;;10317427;28;20231;-71
2023/11/03 05:59:40;;;;;;;6.07;1.50;;;;;8.10;97721.00;;;;10310406;28;20219;-71
2023/11/03 06:04:41;;;;;;;11.03;2.17;;;;;8.10;97721.00;;;;10310637;28;20250;-72
2023/11/03 06:09:42;;;;;;;8.00;1.40;;;;;8.10;97745.00;;;;10332609;28;20223;-73
2023/11/03 06:14:43;;;;;;;8.90;1.77;;;;;8.10;97755.00;;;;10328262;28;20617;-71
2023/11/03 06:19:45;;;;;;;9.27;2.57;;;;;8.00;97759.00;;;;10308048;28;20227;-71
2023/11/03 06:24:46;;;;;;;5.00;1.53;;;;;8.00;97779.00;;;;10310763;28;20231;-71
2023/11/03 06:29:47;;;;;;;4.97;1.43;;;;;7.90;97781.00;;;;10307532;28;20310;-71
2023/11/03 06:34:48;;;;;;;9.27;1.90;;;;;7.90;97791.00;;;;10331281;28;20299;-71
2023/11/03 06:39:51;;;;;;;3.67;1.30;;;;;7.90;97812.00;;;;10321401;28;20216;-72
2023/11/03 06:44:52;;;;;;;8.70;1.70;;;;;7.90;97809.00;;;;10310314;28;20326;-71
2023/11/03 06:49:53;;;;;;;10.50;2.10;;;;;7.90;97807.00;;;;10325697;28;20224;-71
2023/11/03 06:54:54;;;;;;;6.93;1.80;;;;;7.90;97824.00;;;;10314021;28;20281;-72
2023/11/03 06:59:55;;;;;;;7.47;1.67;;;;;7.90;97829.00;;;;10310583;28;20259;-71
2023/11/03 07:04:56;;;;;;;5.77;2.03;;;;;8.00;97835.00;;;;10303362;28;20275;-71
2023/11/03 07:09:59;;;;;;;6.33;1.97;;;;;8.00;97840.00;;;;10317960;28;20282;-71
2023/11/03 07:15:02;;;;;;;6.93;2.00;;;;;8.00;97839.00;;;;10305380;28;20299;-71
2023/11/03 07:20:06;;;;;;;4.37;1.80;;;;;8.10;97854.00;;;;10313235;28;20795;-71
2023/11/03 07:25:07;;;;;;;10.50;1.90;;;;;8.10;97858.00;;;;10325525;28;20235;-75
2023/11/03 07:30:10;;;;;;;10.13;2.00;;;;;8.10;97857.00;;;;10322529;28;20236;-74
2023/11/03 07:35:13;;;;;;;12.27;2.93;;;;;8.20;97869.00;;;;10312076;28;20768;-74
2023/11/03 07:40:14;;;;;;;15.40;2.30;;;;;8.40;97871.00;;;;10324183;28;20866;-76
2023/11/03 07:45:16;;;;;;;10.07;1.97;;;;;8.50;97865.00;;;;10316719;28;20239;-75
2023/11/03 07:50:18;;;;;;;13.47;2.30;;;;;8.60;97879.00;;;;10319581;28;20314;-75
2023/11/03 07:55:20;;;;;;;11.53;2.40;;;;;8.70;97887.00;;;;10305873;28;20226;-74
2023/11/03 08:00:22;;;;;;;4.47;1.50;;;;;8.70;97904.00;;;;10316420;28;20847;-75
2023/11/03 08:05:24;;;;;;;9.97;2.33;;;;;8.90;97922.00;;;;10325496;28;20224;-75
2023/11/03 08:10:25;;;;;;;11.00;2.30;;;;;9.10;97921.00;;;;10309687;28;20231;-75
2023/11/03 08:15:27;;;;;;;7.77;2.10;;;;;9.20;97923.00;;;;10317457;28;20311;-75
2023/11/03 08:20:28;;;;;;;8.17;2.40;;;;;9.30;97927.00;;;;10307272;28;20263;-74
2023/11/03 08:25:29;;;;;;;9.10;2.73;;;;;9.30;97928.00;;;;10322042;28;20238;-74
2023/11/03 08:30:31;;;;;;;9.73;2.30;;;;;9.80;97930.00;;;;10311723;28;20259;-74
2023/11/03 08:35:33;;;;;;;9.83;2.10;;;;;10.30;97937.00;;;;10300052;28;20299;-71
2023/11/03 08:40:34;;;;;;;8.63;1.90;;;;;10.40;97941.00;;;;10309140;28;20235;-71
2023/11/03 08:45:35;;;;;;;13.30;3.03;;;;;10.50;97950.00;;;;10311564;28;20234;-71
2023/11/03 08:50:37;;;;;;;8.87;1.70;;;;;10.70;97956.00;;;;10316965;28;20343;-71
2023/11/03 08:55:38;;;;;;;6.77;1.57;;;;;10.70;97949.00;;;;10310308;28;20235;-71
2023/11/03 09:00:40;;;;;;;10.67;2.03;;;;;10.50;97954.00;;;;10310004;28;20227;-71
2023/11/03 09:05:41;;;;;;;8.45;1.90;;;;;10.40;97961.00;;;;10306277;28;20567;-72
2023/11/03 09:10:42;;;;;;;7.83;2.03;;;;;10.30;97950.00;;;;10304780;28;20247;-72
2023/11/03 09:15:44;;;;;;;11.27;2.37;;;;;10.30;97957.00;;;;10303013;28;20236;-72
2023/11/03 09:20:53;;;;;;;11.37;1.97;;;;;10.40;97968.00;;;;10295055;28;20259;-71
2023/11/03 09:25:54;;;;;;;6.10;1.87;;;;;10.60;97965.00;;;;10310310;28;20224;-72
2023/11/03 09:30:55;;;;;;;7.63;1.80;;;;;10.80;97965.00;;;;10312071;28;20220;-71
2023/11/03 09:35:56;;;;;;;8.60;1.90;;;;;11.10;97966.00;;;;10309171;28;20227;-71
2023/11/03 09:40:58;;;;;;;8.90;1.80;;;;;11.10;97988.00;;;;10312186;28;20779;-71
2023/11/03 09:45:59;;;;;;;9.47;2.60;;;;;11.30;98001.00;;;;10305711;28;20255;-73
2023/11/03 09:51:03;;;;;;;14.27;2.07;;;;;11.50;97995.00;;;;10296384;28;20801;-72
2023/11/03 09:56:06;;;;;;;10.57;2.30;;;;;11.70;98003.00;;;;10312554;28;20228;-73
2023/11/03 10:01:15;;;;;;;8.95;1.92;;;;;12.00;98007.00;;;;10298467;28;20314;-72
2023/11/03 10:06:18;;;;;;;12.85;2.50;;;;;12.00;98004.00;;;;10315955;28;20220;-73
2023/11/03 10:11:20;;;;;;;10.05;2.58;;;;;12.10;98018.00;;;;10314215;28;20231;-72
2023/11/03 10:16:22;;;;;;;7.65;2.40;;;;;12.00;98021.00;;;;10303496;28;20228;-73
2023/11/03 10:21:26;;;;;;;12.27;2.97;;;;;12.10;98025.00;;;;10286799;28;20311;-73
2023/11/03 10:26:32;;;;;;;11.35;3.53;;;;;12.30;98034.00;;;;10315237;28;20236;-73
2023/11/03 10:31:33;;;;;;;5.72;1.75;;;;;12.20;98044.00;;;;10310480;28;20238;-72
2023/11/03 10:36:34;;;;;;;10.05;2.30;;;;;12.60;98043.00;;;;10298138;28;20260;-72
2023/11/03 10:41:37;;;;;;;9.88;2.00;;;;;12.70;98048.00;;;;10289984;28;20253;-73
2023/11/03 10:46:45;;;;;;;8.88;1.88;;;;;12.50;98055.00;;;;10314945;28;20258;-73
2023/11/03 10:52:03;;;;;;;5.43;1.60;;;;;12.40;98059.00;;;;10314222;28;20234;-72
2023/11/03 10:57:05;;;;;;;9.18;2.25;;;;;12.30;98070.00;;;;10308536;28;20224;-72
2023/11/03 11:02:36;;;;;;;5.43;2.17;;;;;13.10;98065.00;;;;10308949;28;20224;-72
2023/11/03 11:07:41;;;;;;;6.85;2.00;;;;;13.60;98062.00;;;;10326692;28;20774;-72
2023/11/03 11:12:47;;;;;;;12.10;2.33;;;;;13.90;98085.00;;;;10318654;28;20285;-72
2023/11/03 11:17:51;;;;;;;8.23;1.95;;;;;13.70;98083.00;;;;10310236;28;20219;-73
2023/11/03 11:23:14;;;;;;;9.07;2.25;;;;;12.80;98087.00;;;;10306702;28;20893;-72
2023/11/03 11:28:38;;;;;;;12.10;2.50;;;;;12.70;98094.00;;;;10301739;28;20223;-71
2023/11/03 11:34:02;;;;;;;11.30;2.25;;;;;12.50;98086.00;;;;10295289;28;20346;-72
2023/11/03 11:39:13;;;;;;;9.18;2.25;;;;;12.90;98097.00;;;;10299552;28;20219;-72
2023/11/03 11:44:23;;;;;;;6.15;1.90;;;;;13.40;98092.00;;;;10288730;28;20231;-72
2023/11/03 11:49:27;;;;;;;6.22;1.75;;;;;13.90;98096.00;;;;10295988;28;20810;-72
2023/11/03 11:54:29;;;;;;;4.82;2.05;;;;;13.80;98110.00;;;;10296356;28;20264;-72
2023/11/03 11:59:32;;;;;;;5.75;1.77;;;;;14.00;98111.00;;;;10281445;28;20787;-71
2023/11/03 12:04:33;;;;;;;10.50;1.90;;;;;13.70;98107.00;;;;10276821;28;20232;-74
2023/11/03 12:09:36;;;;;;;7.13;1.73;;;;;13.20;98098.00;;;;10309712;28;20228;-75
2023/11/03 12:14:37;;;;;;;9.68;1.80;;;;;13.20;98111.00;;;;10305202;28;20258;-74
2023/11/03 12:19:40;;;;;;;9.75;1.95;;;;;14.20;98101.00;;;;10307155;28;20827;-73
2023/11/03 12:24:42;;;;;;;7.10;2.03;;;;;14.70;98106.00;;;;10306302;28;20291;-74
2023/11/03 12:29:44;;;;;;;5.40;1.60;;;;;14.80;98110.00;;;;10302193;28;20303;-76
2023/11/03 12:34:45;;;;;;;5.32;1.77;;;;;14.50;98112.00;;;;10308546;28;20208;-76
2023/11/03 12:39:54;;;;;;;7.82;1.80;;;;;15.20;98104.00;;;;10300865;28;20296;-74
2023/11/03 12:45:00;;;;;;;9.90;2.08;;;;;15.40;98104.00;;;;10308207;28;20243;-75
2023/11/03 12:50:21;;;;;;;10.52;2.25;;;;;15.40;98113.00;;;;10298845;28;20224;-74
2023/11/03 12:55:25;;;;;;;9.98;1.98;;;;;15.20;98111.00;;;;10310401;28;20286;-74
2023/11/03 13:00:31;;;;;;;6.03;1.60;;;;;14.70;98120.00;;;;10317291;28;20219;-76
2023/11/03 13:05:33;;;;;;;8.88;1.60;;;;;14.30;98112.00;;;;10315124;28;20216;-74
2023/11/03 13:10:34;;;;;;;7.38;1.90;;;;;14.10;98108.00;;;;10320969;28;20243;-74
2023/11/03 13:15:37;;;;;;;6.13;1.60;;;;;13.70;98099.00;;;;10294681;28;20220;-70
2023/11/03 13:20:38;;;;;;;6.80;2.10;;;;;13.50;98116.00;;;;10282515;28;20222;-70
2023/11/03 13:25:40;;;;;;;12.82;2.13;;;;;13.50;98121.00;;;;10322136;28;20282;-71
2023/11/03 13:30:44;;;;;;;9.73;2.10;;;;;13.60;98120.00;;;;10311275;28;20223;-70
2023/11/03 13:35:48;;;;;;;9.50;2.03;;;;;13.50;98129.00;;;;10304075;28;20311;-69
2023/11/03 13:40:50;;;;;;;7.82;2.30;;;;;13.30;98145.00;;;;10309936;28;20219;-70
2023/11/03 13:45:52;;;;;;;9.40;2.22;;;;;13.10;98143.00;;;;10304808;28;20267;-70
2023/11/03 13:50:53;;;;;;;11.13;2.30;;;;;13.00;98146.00;;;;10282776;28;20232;-69
2023/11/03 13:55:56;;;;;;;14.07;2.30;;;;;13.00;98145.00;;;;10283832;28;20223;-71
2023/11/03 14:00:57;;;;;;;7.38;1.58;;;;;13.30;98154.00;;;;10313485;28;20220;-70
2023/11/03 14:05:58;;;;;;;8.63;1.83;;;;;14.10;98149.00;;;;10313003;28;20779;-69
2023/11/03 14:11:04;;;;;;;6.88;2.35;;;;;12.80;98145.00;;;;10306506;28;20235;-70
2023/11/03 14:16:08;;;;;;;8.70;2.10;;;;;13.00;98157.00;;;;10304674;28;20266;-69
2023/11/03 14:21:10;;;;;;;4.30;1.95;;;;;12.70;98156.00;;;;10317196;28;20255;-71
2023/11/03 14:26:11;;;;;;;9.40;2.10;;;;;12.90;98159.00;;;;10315377;28;20276;-72
2023/11/03 14:31:14;;;;;;;8.07;1.98;;;;;13.30;98133.00;;;;10313299;28;20641;-72
2023/11/03 14:36:18;;;;;;;6.85;2.10;;;;;13.90;98168.00;;;;10314567;28;20334;-72
2023/11/03 14:41:41;;;;;;;7.40;2.00;;;;;13.40;98171.00;;;;10312522;28;20225;-72
2023/11/03 14:46:49;;;;;;;7.70;1.77;;;;;12.50;98192.00;;;;10307703;28;20235;-71
2023/11/03 14:51:51;;;;;;;4.45;1.33;;;;;12.00;98191.00;;;;10323173;28;20273;-72
2023/11/03 14:56:53;;;;;;;7.60;1.83;;;;;11.70;98196.00;;;;10308757;28;20725;-72
2023/11/03 15:01:54;;;;;;;8.77;1.60;;;;;11.50;98220.00;;;;10333095;28;20227;-72
2023/11/03 15:06:56;;;;;;;6.17;1.60;;;;;11.50;98223.00;;;;10314544;28;20780;-71
2023/11/03 15:11:57;;;;;;;6.43;1.87;;;;;11.30;98214.00;;;;10312001;28;20224;-71
2023/11/03 15:16:59;;;;;;;8.40;2.10;;;;;11.20;98235.00;;;;10327489;28;20716;-71
2023/11/03 15:22:01;;;;;;;4.93;1.80;;;;;11.30;98220.00;;;;10310035;28;20227;-71
2023/11/03 15:27:04;;;;;;;10.27;2.20;;;;;11.20;98228.00;;;;10306236;28;20243;-71
2023/11/03 15:32:05;;;;;;;8.20;1.67;;;;;11.20;98228.00;;;;10309058;28;20238;-72
2023/11/03 15:37:07;;;;;;;7.23;2.20;;;;;11.10;98230.00;;;;10311181;28;20298;-71
2023/11/03 15:42:10;;;;;;;5.33;2.03;;;;;11.00;98240.00;;;;10322823;28;20555;-72
2023/11/03 15:47:11;;;;;;;5.73;2.07;;;;;10.80;98240.00;;;;10302146;28;20302;-71
2023/11/03 15:52:14;;;;;;;3.73;1.30;;;;;10.50;98230.00;;;;10307527;28;20741;-71
2023/11/03 15:57:16;;;;;;;6.77;1.43;;;;;10.30;98229.00;;;;10308316;28;20228;-71
2023/11/03 16:02:19;;;;;;;3.87;1.27;;;;;10.20;98238.00;;;;10317910;28;21764;-72
2023/11/03 16:07:20;;;;;;;7.23;1.13;;;;;9.90;98247.00;;;;10314406;28;20235;-71
2023/11/03 16:12:21;;;;;;;7.47;1.77;;;;;9.80;98247.00;;;;10311401;28;20238;-71
2023/11/03 16:17:24;;;;;;;6.43;1.70;;;;;9.80;98244.00;;;;10327322;28;20228;-71
2023/11/03 16:22:26;;;;;;;6.60;1.40;;;;;9.70;98246.00;;;;10309334;28;20311;-71
2023/11/03 16:27:27;;;;;;;4.27;1.17;;;;;9.60;98246.00;;;;10316435;28;20565;-71
2023/11/03 16:32:29;;;;;;;3.40;1.10;;;;;9.40;98255.00;;;;10314735;28;20291;-71
2023/11/03 16:37:33;;;;;;;6.70;1.30;;;;;9.30;98268.00;;;;10317559;28;20286;-71
2023/11/03 16:42:34;;;;;;;2.53;1.13;;;;;9.20;98268.00;;;;10311958;28;20228;-70
2023/11/03 16:47:35;;;;;;;5.90;1.23;;;;;9.10;98268.00;;;;10333973;28;20227;-70
2023/11/03 16:52:39;;;;;;;5.67;1.27;;;;;9.10;98275.00;;;;10306948;28;20241;-70
2023/11/03 16:57:41;;;;;;;2.10;0.80;;;;;9.10;98278.00;;;;10313742;28;20315;-69
2023/11/03 17:02:47;;;;;;;2.03;0.90;;;;;9.10;98278.00;;;;10314559;28;20223;-69
2023/11/03 17:07:50;;;;;;;1.77;1.47;;;;;9.00;98290.00;;;;10322046;28;20223;-69
2023/11/03 17:12:51;;;;;;;2.10;1.17;;;;;9.00;98278.00;;;;10304291;28;20617;-68
2023/11/03 17:18:02;;;;;;;2.93;0.87;;;;;8.90;98290.00;;;;10309554;28;20230;-69
2023/11/03 17:23:04;;;;;;;3.90;0.83;;;;;8.80;98284.00;;;;10309305;28;20235;-69
2023/11/03 17:28:06;;;;;;;2.00;1.00;;;;;8.80;98274.00;;;;10314491;28;20780;-70
2023/11/03 17:33:10;;;;;;;4.83;1.10;;;;;8.70;98286.00;;;;10302824;28;20232;-70
2023/11/03 17:38:11;;;;;;;3.80;1.20;;;;;8.70;98292.00;;;;10308368;28;20306;-69
2023/11/03 17:43:15;;;;;;;2.03;0.93;;;;;8.50;98290.00;;;;10312244;28;20321;-69
2023/11/03 17:48:17;;;;;;;3.83;1.33;;;;;8.40;98273.00;;;;10321892;28;20232;-69
2023/11/03 17:53:18;;;;;;;3.73;1.30;;;;;8.40;98279.00;;;;10311387;28;20231;-69
2023/11/03 17:58:19;;;;;;;3.00;1.10;;;;;8.30;98290.00;;;;10314427;28;20306;-69
2023/11/03 18:03:20;;;;;;;2.90;1.37;;;;;8.20;98284.00;;;;10309578;28;20788;-70
2023/11/03 18:08:21;;;;;;;4.17;1.30;;;;;8.20;98290.00;;;;10307475;28;20274;-69
2023/11/03 18:13:23;;;;;;;2.63;1.50;;;;;8.20;98289.00;;;;10316894;28;20234;-70
2023/11/03 18:18:24;;;;;;;3.33;1.37;;;;;8.20;98285.00;;;;10320605;28;20646;-70
2023/11/03 18:23:25;;;;;;;2.77;1.10;;;;;8.20;98281.00;;;;10312726;28;20240;-69
2023/11/03 18:28:27;;;;;;;1.23;0.90;;;;;8.10;98272.00;;;;10303708;28;20250;-70
2023/11/03 18:33:29;;;;;;;3.20;1.00;;;;;8.20;98264.00;;;;10303639;28;20736;-69
2023/11/03 18:38:30;;;;;;;3.03;1.20;;;;;8.20;98252.00;;;;10320880;28;20599;-68
2023/11/03 18:43:31;;;;;;;2.67;1.37;;;;;8.20;98258.00;;;;10305266;28;20245;-69
2023/11/03 18:48:33;;;;;;;1.57;1.03;;;;;8.20;98261.00;;;;10310887;28;20234;-69
2023/11/03 18:53:37;;;;;;;2.60;1.00;;;;;8.30;98253.00;;;;10301583;28;20237;-69
2023/11/03 18:58:41;;;;;;;1.97;1.10;;;;;8.40;98255.00;;;;10301041;28;20224;-69
2023/11/03 19:03:45;;;;;;;1.70;1.23;;;;;8.50;98255.00;;;;10308923;28;20223;-71
2023/11/03 19:08:49;;;;;;;2.03;0.80;;;;;8.40;98233.00;;;;10298225;28;20900;-71
2023/11/03 19:13:50;;;;;;;0.90;0.80;;;;;8.20;98249.00;;;;10322523;28;20227;-71
2023/11/03 19:18:54;;;;;;;0.83;0.80;;;;;8.20;98238.00;;;;10325590;28;20220;-71
2023/11/03 19:23:55;;;;;;;1.87;0.77;;;;;8.20;98234.00;;;;10311715;28;20234;-71
2023/11/03 19:28:56;;;;;;;1.37;0.93;;;;;8.10;98239.00;;;;10310328;28;20310;-71
2023/11/03 19:33:58;;;;;;;3.87;1.20;;;;;8.00;98236.00;;;;10310926;28;20271;-71
2023/11/03 19:39:00;;;;;;;2.63;0.80;;;;;8.00;98232.00;;;;10316796;28;20298;-71
2023/11/03 19:44:02;;;;;;;1.23;0.77;;;;;7.90;98238.00;;;;10315008;28;20222;-71
2023/11/03 19:49:03;;;;;;;1.20;1.10;;;;;7.80;98230.00;;;;10297751;28;20681;-71
2023/11/03 19:54:04;;;;;;;1.50;1.10;;;;;7.70;98229.00;;;;10304543;28;20231;-71
2023/11/03 19:59:05;;;;;;;1.90;1.00;;;;;7.70;98218.00;;;;10317356;28;20762;-71
2023/11/03 20:04:08;;;;;;;2.93;1.30;;;;;7.70;98221.00;;;;10313291;28;20228;-70
2023/11/03 20:09:10;;;;;;;2.13;1.23;;;;;7.80;98213.00;;;;10335674;28;20607;-71
2023/11/03 20:14:11;;;;;;;3.40;0.97;;;;;7.80;98217.00;;;;10315971;28;20219;-71
2023/11/03 20:19:14;;;;;;;2.00;1.00;;;;;7.70;98205.00;;;;10319655;28;20219;-71
2023/11/03 20:24:15;;;;;;;4.00;1.50;;;;;7.70;98212.00;;;;10330104;28;20307;-72
2023/11/03 20:29:17;;;;;;;1.10;1.00;;;;;7.70;98210.00;;;;10316310;28;20286;-71
2023/11/03 20:34:18;;;;;;;2.33;1.10;;;;;7.70;98193.00;;;;10318412;28;20760;-71
2023/11/03 20:39:19;;;;;;;2.63;1.17;;;;;7.80;98191.00;;;;10320614;28;20218;-71
2023/11/03 20:44:21;;;;;;;1.50;1.30;;;;;7.80;98172.00;;;;10321696;28;20235;-71
2023/11/03 20:49:22;;;;;;;3.03;1.60;;;;;7.80;98180.00;;;;10325212;28;20320;-71
2023/11/03 20:54:24;;;;;;;1.10;0.97;;;;;7.70;98175.00;;;;10312020;28;20224;-71
2023/11/03 20:59:25;;;;;;;2.17;1.20;;;;;7.70;98185.00;;;;10323180;28;20358;-71
2023/11/03 21:04:28;;;;;;;2.30;1.10;;;;;7.70;98180.00;;;;10325106;28;20310;-72
2023/11/03 21:09:29;;;;;;;1.37;1.10;;;;;7.60;98170.00;;;;10321612;28;20228;-72
2023/11/03 21:14:30;;;;;;;1.77;1.00;;;;;7.60;98165.00;;;;10304322;28;20292;-72
2023/11/03 21:19:33;;;;;;;1.37;1.20;;;;;7.60;98173.00;;;;10320200;28;20252;-71
2023/11/03 21:24:34;;;;;;;2.40;1.00;;;;;7.60;98167.00;;;;10322058;28;20768;-72
2023/11/03 21:29:37;;;;;;;1.50;0.90;;;;;7.50;98169.00;;;;10320244;28;20243;-72
2023/11/03 21:34:38;;;;;;;3.07;0.97;;;;;7.50;98167.00;;;;10329951;28;20306;-71
2023/11/03 21:39:44;;;;;;;1.30;0.73;;;;;7.50;98169.00;;;;10315757;28;20359;-71
2023/11/03 21:44:45;;;;;;;2.23;0.80;;;;;7.50;98167.00;;;;10310715;28;20237;-71
2023/11/03 21:49:46;;;;;;;1.10;0.90;;;;;7.50;98157.00;;;;10313628;28;20251;-71
2023/11/03 21:54:47;;;;;;;1.57;0.80;;;;;7.50;98157.00;;;;10313471;28;20698;-71
2023/11/03 21:59:48;;;;;;;2.10;0.70;;;;;7.50;98148.00;;;;10319825;28;20320;-71
2023/11/03 22:04:50;;;;;;;1.27;0.87;;;;;7.50;98143.00;;;;10317147;28;20582;-71
2023/11/03 22:09:51;;;;;;;2.33;0.80;;;;;7.50;98135.00;;;;10310629;28;20231;-71
2023/11/03 22:14:52;;;;;;;1.10;0.90;;;;;7.50;98145.00;;;;10308739;28;20215;-71
2023/11/03 22:19:53;;;;;;;0.87;0.87;;;;;7.50;98140.00;;;;10309635;28;20797;-71
2023/11/03 22:24:55;;;;;;;2.43;1.00;;;;;7.50;98141.00;;;;10310164;28;20234;-71
2023/11/03 22:29:56;;;;;;;1.80;1.03;;;;;7.60;98143.00;;;;10311656;28;20233;-71
2023/11/03 22:34:58;;;;;;;0.80;0.80;;;;;7.70;98134.00;;;;10311953;28;20619;-72
2023/11/03 22:39:59;;;;;;;2.00;1.03;;;;;7.80;98146.00;;;;10303145;28;20233;-72
2023/11/03 22:45:02;;;;;;;2.80;1.47;;;;;7.90;98132.00;;;;10298030;28;20215;-72
2023/11/03 22:50:04;;;;;;;3.67;1.67;;;;;7.90;98145.00;;;;10314725;28;20241;-73
2023/11/03 22:55:06;;;;;;;1.40;1.30;;;;;8.00;98139.00;;;;10312670;28;20243;-72
2023/11/03 23:00:11;;;;;;;2.43;1.50;;;;;8.10;98142.00;;;;10320437;28;20665;-72
2023/11/03 23:05:12;;;;;;;1.53;1.40;;;;;8.30;98127.00;;;;10312680;28;20231;-72
2023/11/03 23:10:14;;;;;;;2.17;1.33;;;;;8.40;98114.00;;;;10318465;28;20228;-72
2023/11/03 23:15:15;;;;;;;2.67;1.43;;;;;8.50;98136.00;;;;10315140;28;20251;-72
2023/11/03 23:20:16;;;;;;;2.30;1.60;;;;;8.60;98125.00;;;;10320706;28;20223;-73
2023/11/03 23:25:18;;;;;;;4.00;1.77;;;;;8.60;98118.00;;;;10310714;28;20373;-72
2023/11/03 23:30:19;;;;;;;7.77;2.83;;;;;8.70;98119.00;;;;10322539;28;20326;-72
2023/11/03 23:35:20;;;;;;;3.27;1.53;;;;;8.80;98117.00;;;;10314661;28;20259;-71
2023/11/03 23:40:21;;;;;;;4.47;1.87;;;;;8.80;98104.00;;;;10315418;28;20220;-72
2023/11/03 23:45:22;;;;;;;4.70;1.87;;;;;8.80;98111.00;;;;10313851;28;20227;-70
2023/11/03 23:50:24;;;;;;;3.47;1.70;;;;;8.90;98110.00;;;;10303253;28;20227;-70
2023/11/03 23:55:25;;;;;;;4.13;2.00;;;;;8.90;98111.00;;;;10309471;28;20270;-70
